Time;durP1;ratioP1;P1;durP2;ratioP2;P2;SDS_P1;SDS_P2;PMS_P1;PMS_P2;Temp;Humidity;BMP_temperature;BMP_pressure;BME280_temperature;BME280_humidity;BME280_pressure;Samples;Min_cycle;Max_cycle;Signal;HPM_P1;HPM_P2
2023/03/25 00:03:25;;;;;;;;;;;;;;;;;;10372509;28;854;-74
2023/03/25 00:08:22;;;;;;;;;;;;;;;;;;10372389;28;938;-74
2023/03/25 00:13:18;;;;;;;;;;;;;;;;;;10372698;28;858;-74
2023/03/25 00:18:16;;;;;;;;;;;;;;;;;;10371254;28;1894;-75
2023/03/25 00:23:12;;;;;;;;;;;;;;;;;;10372770;28;850;-74
2023/03/25 00:28:08;;;;;;;;;;;;;;;;;;10369975;28;1017;-75
2023/03/25 00:33:03;;;;;;;;;;;;;;;;;;10371264;28;809;-74
2023/03/25 00:38:00;;;;;;;;;;;;;;;;;;10372008;28;1914;-75
2023/03/25 00:42:56;;;;;;;;;;;;;;;;;;10371298;28;1371;-75
2023/03/25 00:47:52;;;;;;;;;;;;;;;;;;10370782;28;819;-75
2023/03/25 00:52:48;;;;;;;;;;;;;;;;;;10370120;28;804;-74
2023/03/25 00:57:44;;;;;;;;;;;;;;;;;;10352925;28;1991;-74
2023/03/25 01:02:40;;;;;;;;;;;;;;;;;;10370178;28;877;-75
2023/03/25 01:07:36;;;;;;;;;;;;;;;;;;10370540;28;972;-74
2023/03/25 01:12:32;;;;;;;;;;;;;;;;;;10369884;28;1016;-74
2023/03/25 01:17:28;;;;;;;;;;;;;;;;;;10368938;28;1890;-75
2023/03/25 01:22:24;;;;;;;;;;;;;;;;;;10370001;28;909;-74
2023/03/25 01:27:19;;;;;;;;;;;;;;;;;;10368622;28;1062;-74
2023/03/25 01:32:15;;;;;;;;;;;;;;;;;;10369053;28;763;-74
2023/03/25 01:37:11;;;;;;;;;;;;;;;;;;10370041;28;877;-74
2023/03/25 01:42:07;;;;;;;;;;;;;;;;;;10368965;28;1885;-74
2023/03/25 01:47:03;;;;;;;;;;;;;;;;;;10368451;28;787;-74
2023/03/25 01:51:59;;;;;;;;;;;;;;;;;;10368289;28;877;-74
2023/03/25 01:56:55;;;;;;;;;;;;;;;;;;10367520;28;1012;-74
2023/03/25 02:01:52;;;;;;;;;;;;;;;;;;10367260;28;1977;-74
2023/03/25 02:06:49;;;;;;;;;;;;;;;;;;10367748;28;846;-75
2023/03/25 02:11:45;;;;;;;;;;;;;;;;;;10368242;28;842;-75
2023/03/25 02:16:41;;;;;;;;;;;;;;;;;;10367987;28;982;-74
2023/03/25 02:21:37;;;;;;;;;;;;;;;;;;10366530;28;1948;-74
2023/03/25 02:26:35;;;;;;;;;;;;;;;;;;10367817;28;953;-74
2023/03/25 02:31:31;;;;;;;;;;;;;;;;;;10366922;28;866;-74
2023/03/25 02:36:29;;;;;;;;;;;;;;;;;;10366756;28;918;-75
2023/03/25 02:41:24;;;;;;;;;;;;;;;;;;10367040;28;1933;-74
2023/03/25 02:46:20;;;;;;;;;;;;;;;;;;10367329;28;1025;-74
2023/03/25 02:51:16;;;;;;;;;;;;;;;;;;10365945;28;814;-74
2023/03/25 02:56:13;;;;;;;;;;;;;;;;;;10366543;28;837;-75
2023/03/25 03:01:09;;;;;;;;;;;;;;;;;;10366149;28;1966;-74
2023/03/25 03:06:05;;;;;;;;;;;;;;;;;;10366064;28;787;-74
2023/03/25 03:11:01;;;;;;;;;;;;;;;;;;10366557;28;861;-74
2023/03/25 03:15:57;;;;;;;;;;;;;;;;;;10366609;28;868;-75
2023/03/25 03:20:53;;;;;;;;;;;;;;;;;;10366031;28;1939;-74
2023/03/25 03:25:48;;;;;;;;;;;;;;;;;;10365762;28;775;-75
2023/03/25 03:30:45;;;;;;;;;;;;;;;;;;10366268;28;907;-74
2023/03/25 03:35:41;;;;;;;;;;;;;;;;;;10365463;28;1092;-74
2023/03/25 03:40:36;;;;;;;;;;;;;;;;;;10365660;28;1943;-74
2023/03/25 03:45:32;;;;;;;;;;;;;;;;;;10366110;28;906;-74
2023/03/25 03:50:28;;;;;;;;;;;;;;;;;;10365303;28;1053;-74
2023/03/25 03:55:27;;;;;;;;;;;;;;;;;;10364592;28;1006;-75
2023/03/25 04:00:24;;;;;;;;;;;;;;;;;;10364402;28;1902;-74
2023/03/25 04:05:20;;;;;;;;;;;;;;;;;;10369901;28;886;-74
2023/03/25 04:10:16;;;;;;;;;;;;;;;;;;10372277;28;858;-75
2023/03/25 04:15:12;;;;;;;;;;;;;;;;;;10373093;28;1109;-74
2023/03/25 04:20:10;;;;;;;;;;;;;;;;;;10372427;28;1940;-74
2023/03/25 04:25:06;;;;;;;;;;;;;;;;;;10371716;28;852;-75
2023/03/25 04:30:03;;;;;;;;;;;;;;;;;;10371556;28;857;-74
2023/03/25 04:34:58;;;;;;;;;;;;;;;;;;10371429;28;909;-75
2023/03/25 04:39:59;;;;;;;;;;;;;;;;;;10371076;28;1886;-74
2023/03/25 04:44:54;;;;;;;;;;;;;;;;;;10370966;28;857;-74
2023/03/25 04:49:50;;;;;;;;;;;;;;;;;;10371770;28;881;-75
2023/03/25 04:54:46;;;;;;;;;;;;;;;;;;10370643;28;763;-75
2023/03/25 04:59:42;;;;;;;;;;;;;;;;;;10370272;28;2026;-75
2023/03/25 05:04:40;;;;;;;;;;;;;;;;;;10370184;28;892;-75
2023/03/25 05:09:36;;;;;;;;;;;;;;;;;;10370011;28;811;-74
2023/03/25 05:14:32;;;;;;;;;;;;;;;;;;10369476;28;795;-74
2023/03/25 05:19:28;;;;;;;;;;;;;;;;;;10369561;28;1945;-75
2023/03/25 05:24:25;;;;;;;;;;;;;;;;;;10369456;28;780;-74
2023/03/25 05:29:21;;;;;;;;;;;;;;;;;;10369532;28;854;-74
2023/03/25 05:34:19;;;;;;;;;;;;;;;;;;10369760;28;945;-74
2023/03/25 05:39:16;;;;;;;;;;;;;;;;;;10369034;28;1878;-74
2023/03/25 05:44:13;;;;;;;;;;;;;;;;;;10368891;28;921;-75
2023/03/25 05:49:09;;;;;;;;;;;;;;;;;;10368379;28;920;-74
2023/03/25 05:54:09;;;;;;;;;;;;;;;;;;10368265;28;945;-74
2023/03/25 05:59:05;;;;;;;;;;;;;;;;;;10368056;28;1910;-77
2023/03/25 06:04:01;;;;;;;;;;;;;;;;;;10368504;28;902;-77
2023/03/25 06:08:57;;;;;;;;;;;;;;;;;;10368322;28;771;-77
2023/03/25 06:13:53;;;;;;;;;;;;;;;;;;10367581;28;854;-76
2023/03/25 06:18:55;;;;;;;;;;;;;;;;;;10366712;28;1882;-76
2023/03/25 06:23:52;;;;;;;;;;;;;;;;;;10366543;28;904;-77
2023/03/25 06:28:48;;;;;;;;;;;;;;;;;;10366301;28;874;-77
2023/03/25 06:33:44;;;;;;;;;;;;;;;;;;10366942;28;1093;-77
2023/03/25 06:38:40;;;;;;;;;;;;;;;;;;10366891;28;1955;-76
2023/03/25 06:43:35;;;;;;;;;;;;;;;;;;10367839;28;1183;-76
2023/03/25 06:48:31;;;;;;;;;;;;;;;;;;10366549;28;834;-77
2023/03/25 06:53:27;;;;;;;;;;;;;;;;;;10366390;28;833;-78
2023/03/25 06:58:23;;;;;;;;;;;;;;;;;;10366549;28;1972;-76
2023/03/25 07:03:19;;;;;;;;;;;;;;;;;;10366181;28;921;-76
2023/03/25 07:08:15;;;;;;;;;;;;;;;;;;10366135;28;902;-77
2023/03/25 07:13:11;;;;;;;;;;;;;;;;;;10366248;28;937;-76
2023/03/25 07:18:07;;;;;;;;;;;;;;;;;;10365864;28;1933;-79
2023/03/25 07:23:02;;;;;;;;;;;;;;;;;;10366458;28;827;-79
2023/03/25 07:27:58;;;;;;;;;;;;;;;;;;10366385;28;918;-76
2023/03/25 07:32:54;;;;;;;;;;;;;;;;;;10365665;28;869;-80
2023/03/25 07:37:50;;;;;;;;;;;;;;;;;;10367799;28;1939;-76
2023/03/25 07:42:46;;;;;;;;;;;;;;;;;;10373348;28;1534;-76
2023/03/25 07:47:42;;;;;;;;;;;;;;;;;;10373825;28;858;-76
2023/03/25 07:52:38;;;;;;;;;;;;;;;;;;10373703;28;889;-76
2023/03/25 07:57:34;;;;;;;;;;;;;;;;;;10372872;28;1176;-77
2023/03/25 08:02:30;;;;;;;;;;;;;;;;;;10372540;28;1973;-77
2023/03/25 08:07:27;;;;;;;;;;;;;;;;;;10373039;28;843;-77
2023/03/25 08:12:23;;;;;;;;;;;;;;;;;;10372922;28;888;-77
2023/03/25 08:17:19;;;;;;;;;;;;;;;;;;10372154;28;819;-77
2023/03/25 08:22:14;;;;;;;;;;;;;;;;;;10371841;28;1885;-77
2023/03/25 08:27:10;;;;;;;;;;;;;;;;;;10372369;28;915;-76
2023/03/25 08:32:06;;;;;;;;;;;;;;;;;;10372336;28;902;-76
2023/03/25 08:37:03;;;;;;;;;;;;;;;;;;10371454;28;765;-79
2023/03/25 08:41:59;;;;;;;;;;;;;;;;;;10372227;28;1947;-79
2023/03/25 08:46:54;;;;;;;;;;;;;;;;;;10371533;28;804;-77
2023/03/25 08:51:50;;;;;;;;;;;;;;;;;;10370672;28;883;-77
2023/03/25 08:56:46;;;;;;;;;;;;;;;;;;10371324;28;851;-76
2023/03/25 09:01:43;;;;;;;;;;;;;;;;;;10370990;28;1967;-78
2023/03/25 09:06:39;;;;;;;;;;;;;;;;;;10370760;28;823;-76
2023/03/25 09:11:35;;;;;;;;;;;;;;;;;;10370543;28;806;-76
2023/03/25 09:16:31;;;;;;;;;;;;;;;;;;10370482;28;815;-77
2023/03/25 09:21:27;;;;;;;;;;;;;;;;;;10369512;28;1951;-77
2023/03/25 09:26:24;;;;;;;;;;;;;;;;;;10369713;28;963;-81
2023/03/25 09:31:20;;;;;;;;;;;;;;;;;;10369084;28;877;-81
2023/03/25 09:36:16;;;;;;;;;;;;;;;;;;10369306;28;778;-77
2023/03/25 09:41:12;;;;;;;;;;;;;;;;;;10368204;28;1882;-76
2023/03/25 09:46:08;;;;;;;;;;;;;;;;;;10368575;28;892;-77
2023/03/25 09:51:04;;;;;;;;;;;;;;;;;;10369802;28;912;-73
2023/03/25 09:56:00;;;;;;;;;;;;;;;;;;10368175;28;1095;-73
2023/03/25 10:00:56;;;;;;;;;;;;;;;;;;10368715;28;1913;-73
2023/03/25 10:05:52;;;;;;;;;;;;;;;;;;10368712;28;929;-73
2023/03/25 10:10:48;;;;;;;;;;;;;;;;;;10368739;28;886;-74
2023/03/25 10:15:44;;;;;;;;;;;;;;;;;;10368363;28;1027;-75
2023/03/25 10:20:40;;;;;;;;;;;;;;;;;;10367265;28;1935;-76
2023/03/25 10:25:37;;;;;;;;;;;;;;;;;;10367373;28;827;-75
2023/03/25 10:30:33;;;;;;;;;;;;;;;;;;10366960;28;968;-75
2023/03/25 10:35:29;;;;;;;;;;;;;;;;;;10366852;28;873;-75
2023/03/25 10:40:26;;;;;;;;;;;;;;;;;;10367116;28;1878;-75
2023/03/25 10:45:21;;;;;;;;;;;;;;;;;;10366559;28;876;-75
2023/03/25 10:50:18;;;;;;;;;;;;;;;;;;10365739;28;1127;-79
2023/03/25 10:55:15;;;;;;;;;;;;;;;;;;10366320;28;861;-79
2023/03/25 11:00:19;;;;;;;;;;;;;;;;;;10366152;28;1992;-76
2023/03/25 11:05:17;;;;;;;;;;;;;;;;;;10366688;28;881;-75
2023/03/25 11:10:13;;;;;;;;;;;;;;;;;;10365980;28;961;-75
2023/03/25 11:15:09;;;;;;;;;;;;;;;;;;10372015;28;1007;-74
2023/03/25 11:20:09;;;;;;;;;;;;;;;;;;10374520;28;1886;-75
2023/03/25 11:25:05;;;;;;;;;;;;;;;;;;10374764;28;795;-74
2023/03/25 11:30:02;;;;;;;;;;;;;;;;;;10373323;28;1283;-74
2023/03/25 11:34:57;;;;;;;;;;;;;;;;;;10374693;28;838;-75
2023/03/25 11:39:54;;;;;;;;;;;;;;;;;;10373626;28;1955;-74
2023/03/25 11:44:50;;;;;;;;;;;;;;;;;;10373870;28;940;-75
2023/03/25 11:49:47;;;;;;;;;;;;;;;;;;10372634;28;1038;-75
2023/03/25 11:54:43;;;;;;;;;;;;;;;;;;10373697;28;962;-74
2023/03/25 11:59:40;;;;;;;;;;;;;;;;;;10372827;28;1983;-74
2023/03/25 12:04:36;;;;;;;;;;;;;;;;;;10373176;28;877;-74
2023/03/25 12:09:32;;;;;;;;;;;;;;;;;;10373230;28;859;-74
2023/03/25 12:14:28;;;;;;;;;;;;;;;;;;10372369;28;869;-74
2023/03/25 12:19:24;;;;;;;;;;;;;;;;;;10372032;28;1878;-75
2023/03/25 12:24:20;;;;;;;;;;;;;;;;;;10371308;28;886;-75
2023/03/25 12:29:16;;;;;;;;;;;;;;;;;;10372740;28;878;-74
2023/03/25 12:34:12;;;;;;;;;;;;;;;;;;10371500;28;888;-74
2023/03/25 12:39:08;;;;;;;;;;;;;;;;;;10371142;28;1939;-75
2023/03/25 12:44:04;;;;;;;;;;;;;;;;;;10370927;28;1638;-74
2023/03/25 12:49:00;;;;;;;;;;;;;;;;;;10370896;28;889;-75
2023/03/25 12:53:56;;;;;;;;;;;;;;;;;;10371330;28;1104;-75
2023/03/25 12:58:54;;;;;;;;;;;;;;;;;;10370505;28;1906;-74
2023/03/25 13:03:50;;;;;;;;;;;;;;;;;;10370990;28;913;-75
2023/03/25 13:08:46;;;;;;;;;;;;;;;;;;10370769;28;858;-75
2023/03/25 13:13:41;;;;;;;;;;;;;;;;;;10370290;28;964;-75
2023/03/25 13:18:37;;;;;;;;;;;;;;;;;;10369699;28;1945;-74
2023/03/25 13:23:33;;;;;;;;;;;;;;;;;;10369612;28;773;-74
2023/03/25 13:28:29;;;;;;;;;;;;;;;;;;10370619;28;803;-74
2023/03/25 13:33:25;;;;;;;;;;;;;;;;;;10369231;28;963;-74
2023/03/25 13:38:21;;;;;;;;;;;;;;;;;;10367930;28;1898;-73
2023/03/25 13:43:18;;;;;;;;;;;;;;;;;;10367821;28;1521;-73
2023/03/25 13:48:13;;;;;;;;;;;;;;;;;;10368977;28;891;-73
2023/03/25 13:53:10;;;;;;;;;;;;;;;;;;10368268;28;807;-73
2023/03/25 13:58:07;;;;;;;;;;;;;;;;;;10368535;28;1910;-75
2023/03/25 14:03:03;;;;;;;;;;;;;;;;;;10368395;28;1647;-75
2023/03/25 14:07:59;;;;;;;;;;;;;;;;;;10368016;28;963;-80
2023/03/25 14:12:55;;;;;;;;;;;;;;;;;;10367495;28;887;-80
2023/03/25 14:17:53;;;;;;;;;;;;;;;;;;10367291;28;1007;-80
2023/03/25 14:22:49;;;;;;;;;;;;;;;;;;10367728;28;821;-75
2023/03/25 14:27:44;;;;;;;;;;;;;;;;;;10367601;28;921;-75
2023/03/25 14:32:40;;;;;;;;;;;;;;;;;;10367499;28;882;-75
2023/03/25 14:37:36;;;;;;;;;;;;;;;;;;10366884;28;868;-75
2023/03/25 14:42:32;;;;;;;;;;;;;;;;;;10366685;28;1886;-75
2023/03/25 14:47:29;;;;;;;;;;;;;;;;;;10365712;28;983;-75
2023/03/25 14:52:24;;;;;;;;;;;;;;;;;;10366374;28;842;-74
2023/03/25 14:57:20;;;;;;;;;;;;;;;;;;10365915;28;902;-75
2023/03/25 15:02:16;;;;;;;;;;;;;;;;;;10365612;28;1910;-75
2023/03/25 15:07:13;;;;;;;;;;;;;;;;;;10365296;28;849;-75
2023/03/25 15:12:09;;;;;;;;;;;;;;;;;;10365762;28;912;-75
2023/03/25 15:17:05;;;;;;;;;;;;;;;;;;10365707;28;877;-75
2023/03/25 15:22:04;;;;;;;;;;;;;;;;;;10365690;28;1943;-75
2023/03/25 15:27:00;;;;;;;;;;;;;;;;;;10365584;28;874;-75
2023/03/25 15:31:57;;;;;;;;;;;;;;;;;;10365495;28;776;-74
2023/03/25 15:36:53;;;;;;;;;;;;;;;;;;10365307;28;873;-75
2023/03/25 15:41:49;;;;;;;;;;;;;;;;;;10365156;28;1882;-75
2023/03/25 15:46:45;;;;;;;;;;;;;;;;;;10366071;28;810;-74
2023/03/25 15:51:41;;;;;;;;;;;;;;;;;;10365890;28;811;-75
2023/03/25 15:56:37;;;;;;;;;;;;;;;;;;10365337;28;803;-75
2023/03/25 16:01:32;;;;;;;;;;;;;;;;;;10371842;28;1914;-78
2023/03/25 16:06:28;;;;;;;;;;;;;;;;;;10373881;28;907;-74
2023/03/25 16:11:24;;;;;;;;;;;;;;;;;;10372519;28;822;-74
2023/03/25 16:16:20;;;;;;;;;;;;;;;;;;10373286;28;1047;-75
2023/03/25 16:21:16;;;;;;;;;;;;;;;;;;10372013;28;1890;-74
2023/03/25 16:26:15;;;;;;;;;;;;;;;;;;10371935;28;879;-74
2023/03/25 16:31:10;;;;;;;;;;;;;;;;;;10372957;28;841;-74
2023/03/25 16:36:06;;;;;;;;;;;;;;;;;;10371472;28;959;-75
2023/03/25 16:41:02;;;;;;;;;;;;;;;;;;10371338;28;1893;-74
2023/03/25 16:45:58;;;;;;;;;;;;;;;;;;10371123;28;833;-74
2023/03/25 16:50:54;;;;;;;;;;;;;;;;;;10371549;28;830;-74
2023/03/25 16:55:50;;;;;;;;;;;;;;;;;;10370751;28;821;-74
2023/03/25 17:00:46;;;;;;;;;;;;;;;;;;10370543;28;1914;-77
2023/03/25 17:05:42;;;;;;;;;;;;;;;;;;10370351;28;882;-77
2023/03/25 17:10:38;;;;;;;;;;;;;;;;;;10369622;28;938;-78
2023/03/25 17:15:34;;;;;;;;;;;;;;;;;;10370622;28;868;-75
2023/03/25 17:20:31;;;;;;;;;;;;;;;;;;10370254;28;1894;-76
2023/03/25 17:25:27;;;;;;;;;;;;;;;;;;10370136;28;943;-76
2023/03/25 17:30:23;;;;;;;;;;;;;;;;;;10370161;28;905;-76
2023/03/25 17:35:19;;;;;;;;;;;;;;;;;;10369859;28;875;-78
2023/03/25 17:40:15;;;;;;;;;;;;;;;;;;10368666;28;1959;-77
2023/03/25 17:45:11;;;;;;;;;;;;;;;;;;10368298;28;1014;-77
2023/03/25 17:50:07;;;;;;;;;;;;;;;;;;10369235;28;802;-77
2023/03/25 17:55:02;;;;;;;;;;;;;;;;;;10369299;28;854;-76
2023/03/25 17:59:58;;;;;;;;;;;;;;;;;;10368956;28;1989;-77
2023/03/25 18:04:54;;;;;;;;;;;;;;;;;;10368111;28;868;-77
2023/03/25 18:09:51;;;;;;;;;;;;;;;;;;10368532;28;846;-77
2023/03/25 18:14:48;;;;;;;;;;;;;;;;;;10367720;28;831;-76
2023/03/25 18:19:44;;;;;;;;;;;;;;;;;;10367455;28;1898;-77
2023/03/25 18:24:40;;;;;;;;;;;;;;;;;;10366342;28;917;-77
2023/03/25 18:29:39;;;;;;;;;;;;;;;;;;10366632;28;1134;-76
2023/03/25 18:34:35;;;;;;;;;;;;;;;;;;10367643;28;859;-77
2023/03/25 18:39:31;;;;;;;;;;;;;;;;;;10367294;28;1956;-77
2023/03/25 18:44:29;;;;;;;;;;;;;;;;;;10366758;28;1104;-77
2023/03/25 18:49:26;;;;;;;;;;;;;;;;;;10366522;28;968;-76
2023/03/25 18:54:22;;;;;;;;;;;;;;;;;;10367068;28;889;-77
2023/03/25 18:59:17;;;;;;;;;;;;;;;;;;10366348;28;1914;-77
2023/03/25 19:04:13;;;;;;;;;;;;;;;;;;10366887;28;831;-76
2023/03/25 19:09:09;;;;;;;;;;;;;;;;;;10366819;28;870;-77
2023/03/25 19:14:05;;;;;;;;;;;;;;;;;;10365959;28;865;-76
2023/03/25 19:19:01;;;;;;;;;;;;;;;;;;10365940;28;1947;-76
2023/03/25 19:23:57;;;;;;;;;;;;;;;;;;10366536;28;965;-77
2023/03/25 19:28:53;;;;;;;;;;;;;;;;;;10366641;28;906;-76
2023/03/25 19:33:49;;;;;;;;;;;;;;;;;;10367293;28;787;-76
2023/03/25 19:38:45;;;;;;;;;;;;;;;;;;10373637;28;1894;-77
2023/03/25 19:43:41;;;;;;;;;;;;;;;;;;10374294;28;790;-76
2023/03/25 19:48:36;;;;;;;;;;;;;;;;;;10373446;28;786;-76
2023/03/25 19:53:32;;;;;;;;;;;;;;;;;;10372704;28;992;-76
2023/03/25 19:58:28;;;;;;;;;;;;;;;;;;10373003;28;1965;-76
2023/03/25 20:03:25;;;;;;;;;;;;;;;;;;10372258;28;760;-76
2023/03/25 20:08:22;;;;;;;;;;;;;;;;;;10372676;28;834;-76
2023/03/25 20:13:17;;;;;;;;;;;;;;;;;;10372448;28;889;-76
2023/03/25 20:18:14;;;;;;;;;;;;;;;;;;10372335;28;1945;-76
2023/03/25 20:23:10;;;;;;;;;;;;;;;;;;10372684;28;867;-76
2023/03/25 20:28:06;;;;;;;;;;;;;;;;;;10371959;28;880;-76
2023/03/25 20:33:02;;;;;;;;;;;;;;;;;;10372360;28;800;-76
2023/03/25 20:37:58;;;;;;;;;;;;;;;;;;10371540;28;983;-76
2023/03/25 20:42:54;;;;;;;;;;;;;;;;;;10370760;28;1890;-76
2023/03/25 20:47:50;;;;;;;;;;;;;;;;;;10370081;28;869;-75
2023/03/25 20:52:47;;;;;;;;;;;;;;;;;;10370961;28;803;-74
2023/03/25 20:57:43;;;;;;;;;;;;;;;;;;10371528;28;1696;-83
2023/03/25 21:02:39;;;;;;;;;;;;;;;;;;10371111;28;1922;-77
2023/03/25 21:07:36;;;;;;;;;;;;;;;;;;10371138;28;879;-77
2023/03/25 21:12:33;;;;;;;;;;;;;;;;;;10370808;28;801;-75
2023/03/25 21:17:29;;;;;;;;;;;;;;;;;;10369869;28;979;-77
2023/03/25 21:22:26;;;;;;;;;;;;;;;;;;10370408;28;1890;-77
2023/03/25 21:27:21;;;;;;;;;;;;;;;;;;10369565;28;865;-75
2023/03/25 21:32:17;;;;;;;;;;;;;;;;;;10369417;28;948;-77
2023/03/25 21:37:13;;;;;;;;;;;;;;;;;;10369164;28;861;-77
2023/03/25 21:42:09;;;;;;;;;;;;;;;;;;10368735;28;1963;-77
2023/03/25 21:47:07;;;;;;;;;;;;;;;;;;10368884;28;765;-77
2023/03/25 21:52:04;;;;;;;;;;;;;;;;;;10369195;28;939;-77
2023/03/25 21:57:03;;;;;;;;;;;;;;;;;;10368423;28;1039;-78
2023/03/25 22:01:59;;;;;;;;;;;;;;;;;;10367513;28;1976;-76
2023/03/25 22:06:55;;;;;;;;;;;;;;;;;;10369287;28;827;-77
2023/03/25 22:11:51;;;;;;;;;;;;;;;;;;10368330;28;987;-77
2023/03/25 22:16:47;;;;;;;;;;;;;;;;;;10367700;28;810;-77
2023/03/25 22:21:43;;;;;;;;;;;;;;;;;;10367450;28;1898;-77
2023/03/25 22:26:41;;;;;;;;;;;;;;;;;;10367353;28;852;-76
2023/03/25 22:31:38;;;;;;;;;;;;;;;;;;10367128;28;896;-77
2023/03/25 22:36:34;;;;;;;;;;;;;;;;;;10367622;28;844;-76
2023/03/25 22:41:30;;;;;;;;;;;;;;;;;;10367179;28;1894;-76
2023/03/25 22:46:26;;;;;;;;;;;;;;;;;;10366744;28;814;-76
2023/03/25 22:51:21;;;;;;;;;;;;;;;;;;10366631;28;899;-76
2023/03/25 22:56:19;;;;;;;;;;;;;;;;;;10366492;28;886;-77
2023/03/25 23:01:15;;;;;;;;;;;;;;;;;;10366352;28;1909;-76
2023/03/25 23:06:11;;;;;;;;;;;;;;;;;;10366369;28;1118;-76
2023/03/25 23:11:07;;;;;;;;;;;;;;;;;;10376939;28;939;-76
2023/03/25 23:16:02;;;;;;;;;;;;;;;;;;10381081;28;941;-76
2023/03/25 23:20:58;;;;;;;;;;;;;;;;;;10379739;28;1940;-76
2023/03/25 23:25:54;;;;;;;;;;;;;;;;;;10379719;28;947;-76
2023/03/25 23:30:50;;;;;;;;;;;;;;;;;;10380232;28;838;-76
2023/03/25 23:35:46;;;;;;;;;;;;;;;;;;10380183;28;886;-76
2023/03/25 23:40:42;;;;;;;;;;;;;;;;;;10379997;28;1945;-76
2023/03/25 23:45:37;;;;;;;;;;;;;;;;;;10378719;28;1091;-76
2023/03/25 23:50:34;;;;;;;;;;;;;;;;;;10379202;28;785;-76
2023/03/25 23:55:30;;;;;;;;;;;;;;;;;;10379652;28;939;-76
